KHY156 RPLL-VTBS
Flight info
| Callsign | KHY156 |
|---|---|
| Flight time | 2h 47m |
| Altitude | 40000 |
| Route | SIRCA2F SIRCA L628 IBOBI/N0446F340 L628 ARESI/K0848F400 L628 PCA G474 ANINA/N0455F400 G474 VEMKO M633 DULEM TUMGA1C |
| Aircraft | A339/H-SADE1E2E3GHIJ3J5M1P2RWXY/LB2D1 |
Departure
| Time | 2026-05-07 20:51 |
|---|---|
| Airport | Ninoy Aquino International Airport (RPLL) |
Arrival
| Time | 2026-05-07 23:39 |
|---|---|
| Airport | Suvarnabhumi Airport (VTBS) |
| Time | Latitude | Longitude | Altitude | Speed | Heading |
|---|---|---|---|---|---|
| 2026-05-07 20:20 | 14.51607 | 121.01560 | 92 ft | 0 kts | 46° |
| 2026-05-07 20:38 | 14.51606 | 121.01559 | 93 ft | 0 kts | 46° |
| 2026-05-07 20:38 | 14.51605 | 121.01558 | 93 ft | 0 kts | 46° |
| 2026-05-07 20:39 | 14.51594 | 121.01547 | 93 ft | 2 kts | 46° |
| 2026-05-07 20:39 | 14.51584 | 121.01535 | 93 ft | 2 kts | 46° |
| 2026-05-07 20:39 | 14.51573 | 121.01524 | 93 ft | 2 kts | 46° |
| 2026-05-07 20:39 | 14.51563 | 121.01512 | 93 ft | 2 kts | 65° |
| 2026-05-07 20:40 | 14.51560 | 121.01498 | 93 ft | 2 kts | 90° |
| 2026-05-07 20:40 | 14.51562 | 121.01483 | 93 ft | 2 kts | 114° |
| 2026-05-07 20:40 | 14.51569 | 121.01472 | 93 ft | 0 kts | 134° |
| 2026-05-07 20:40 | 14.51563 | 121.01478 | 93 ft | 3 kts | 131° |
| 2026-05-07 20:41 | 14.51535 | 121.01507 | 93 ft | 5 kts | 135° |
| 2026-05-07 20:41 | 14.51520 | 121.01522 | 93 ft | 0 kts | 135° |
| 2026-05-07 20:41 | 14.51517 | 121.01525 | 93 ft | 0 kts | 135° |
| 2026-05-07 20:43 | 14.51514 | 121.01528 | 92 ft | 1 kts | 135° |
| 2026-05-07 20:43 | 14.51498 | 121.01545 | 93 ft | 5 kts | 134° |
| 2026-05-07 20:43 | 14.51463 | 121.01583 | 93 ft | 9 kts | 133° |
| 2026-05-07 20:44 | 14.51410 | 121.01638 | 93 ft | 12 kts | 135° |
| 2026-05-07 20:44 | 14.51344 | 121.01707 | 93 ft | 14 kts | 135° |
| 2026-05-07 20:44 | 14.51267 | 121.01786 | 93 ft | 16 kts | 135° |
| 2026-05-07 20:44 | 14.51198 | 121.01858 | 93 ft | 14 kts | 135° |
| 2026-05-07 20:45 | 14.51123 | 121.01936 | 93 ft | 16 kts | 136° |
| 2026-05-07 20:45 | 14.51059 | 121.01980 | 93 ft | 7 kts | 193° |
| 2026-05-07 20:45 | 14.51016 | 121.01939 | 93 ft | 10 kts | 236° |
| 2026-05-07 20:45 | 14.50974 | 121.01868 | 93 ft | 13 kts | 240° |
| 2026-05-07 20:46 | 14.50930 | 121.01787 | 93 ft | 13 kts | 240° |
| 2026-05-07 20:46 | 14.50877 | 121.01693 | 93 ft | 16 kts | 240° |
| 2026-05-07 20:46 | 14.50818 | 121.01587 | 93 ft | 18 kts | 240° |
| 2026-05-07 20:46 | 14.50752 | 121.01469 | 93 ft | 19 kts | 240° |
| 2026-05-07 20:47 | 14.50682 | 121.01341 | 93 ft | 21 kts | 240° |
| 2026-05-07 20:47 | 14.50608 | 121.01208 | 93 ft | 22 kts | 240° |
| 2026-05-07 20:47 | 14.50530 | 121.01068 | 93 ft | 22 kts | 240° |
| 2026-05-07 20:47 | 14.50450 | 121.00923 | 93 ft | 23 kts | 240° |
| 2026-05-07 20:48 | 14.50366 | 121.00773 | 93 ft | 24 kts | 240° |
| 2026-05-07 20:48 | 14.50282 | 121.00620 | 93 ft | 24 kts | 240° |
| 2026-05-07 20:48 | 14.50195 | 121.00467 | 93 ft | 24 kts | 240° |
| 2026-05-07 20:48 | 14.50110 | 121.00315 | 93 ft | 24 kts | 240° |
| 2026-05-07 20:49 | 14.50026 | 121.00159 | 93 ft | 25 kts | 240° |
| 2026-05-07 20:49 | 14.49941 | 121.00006 | 93 ft | 19 kts | 240° |
| 2026-05-07 20:49 | 14.49870 | 120.99973 | 93 ft | 13 kts | 159° |
| 2026-05-07 20:49 | 14.49810 | 121.00034 | 93 ft | 13 kts | 82° |
| 2026-05-07 20:50 | 14.49842 | 121.00118 | 93 ft | 13 kts | 60° |
| 2026-05-07 20:50 | 14.49924 | 121.00265 | 93 ft | 50 kts | 60° |
| 2026-05-07 20:50 | 14.50213 | 121.00784 | 93 ft | 116 kts | 61° |
| 2026-05-07 20:50 | 14.50717 | 121.01681 | 137 ft | 166 kts | 60° |
| 2026-05-07 20:51 | 14.51268 | 121.02689 | 649 ft | 172 kts | 61° |
| 2026-05-07 20:51 | 14.51849 | 121.03782 | 1341 ft | 174 kts | 60° |
| 2026-05-07 20:51 | 14.52443 | 121.04847 | 2007 ft | 175 kts | 59° |
| 2026-05-07 20:51 | 14.53083 | 121.05973 | 2347 ft | 191 kts | 59° |
| 2026-05-07 20:52 | 14.53774 | 121.07216 | 2675 ft | 208 kts | 59° |
| 2026-05-07 20:52 | 14.54528 | 121.08574 | 3023 ft | 227 kts | 59° |
| 2026-05-07 20:52 | 14.55316 | 121.09993 | 3444 ft | 245 kts | 59° |
| 2026-05-07 20:52 | 14.56195 | 121.11569 | 3988 ft | 258 kts | 56° |
| 2026-05-07 20:53 | 14.57406 | 121.12903 | 4728 ft | 261 kts | 31° |
| 2026-05-07 20:53 | 14.59089 | 121.13516 | 5426 ft | 264 kts | 2° |
| 2026-05-07 20:53 | 14.60878 | 121.13200 | 6197 ft | 266 kts | 334° |
| 2026-05-07 20:53 | 14.62285 | 121.12036 | 6980 ft | 268 kts | 306° |
| 2026-05-07 20:54 | 14.62981 | 121.10321 | 7747 ft | 273 kts | 278° |
| 2026-05-07 20:54 | 14.62852 | 121.08441 | 8528 ft | 278 kts | 260° |
| 2026-05-07 20:54 | 14.62443 | 121.06599 | 9222 ft | 284 kts | 258° |
| 2026-05-07 20:54 | 14.61984 | 121.04653 | 10004 ft | 288 kts | 258° |
| 2026-05-07 20:55 | 14.61527 | 121.02692 | 10813 ft | 291 kts | 258° |
| 2026-05-07 20:55 | 14.61070 | 121.00699 | 11621 ft | 294 kts | 258° |
| 2026-05-07 20:55 | 14.60619 | 120.98704 | 12427 ft | 296 kts | 258° |
| 2026-05-07 20:55 | 14.60155 | 120.96637 | 13220 ft | 300 kts | 258° |
| 2026-05-07 20:56 | 14.59689 | 120.94550 | 13983 ft | 305 kts | 258° |
| 2026-05-07 20:56 | 14.59214 | 120.92413 | 14748 ft | 309 kts | 259° |
| 2026-05-07 20:56 | 14.58733 | 120.90246 | 15506 ft | 314 kts | 259° |
| 2026-05-07 20:56 | 14.58244 | 120.88041 | 16257 ft | 318 kts | 259° |
| 2026-05-07 20:57 | 14.57752 | 120.85825 | 16992 ft | 323 kts | 259° |
| 2026-05-07 20:57 | 14.57249 | 120.83555 | 17727 ft | 327 kts | 259° |
| 2026-05-07 20:57 | 14.56741 | 120.81264 | 18447 ft | 331 kts | 259° |
| 2026-05-07 20:57 | 14.56228 | 120.78950 | 19154 ft | 336 kts | 259° |
| 2026-05-07 20:58 | 14.55708 | 120.76601 | 19848 ft | 340 kts | 259° |
| 2026-05-07 20:58 | 14.55175 | 120.74200 | 20526 ft | 344 kts | 259° |
| 2026-05-07 20:58 | 14.54641 | 120.71796 | 21179 ft | 348 kts | 258° |
| 2026-05-07 20:58 | 14.54098 | 120.69349 | 21817 ft | 352 kts | 258° |
| 2026-05-07 20:59 | 14.53557 | 120.66913 | 22425 ft | 356 kts | 258° |
| 2026-05-07 20:59 | 14.52994 | 120.64381 | 23015 ft | 361 kts | 258° |
| 2026-05-07 20:59 | 14.52431 | 120.61855 | 23590 ft | 365 kts | 258° |
| 2026-05-07 20:59 | 14.51868 | 120.59325 | 24159 ft | 368 kts | 258° |
| 2026-05-07 21:00 | 14.51286 | 120.56715 | 24727 ft | 372 kts | 258° |
| 2026-05-07 21:00 | 14.50710 | 120.54135 | 25267 ft | 376 kts | 258° |
| 2026-05-07 21:00 | 14.50126 | 120.51516 | 25801 ft | 379 kts | 258° |
| 2026-05-07 21:00 | 14.49526 | 120.48832 | 26329 ft | 382 kts | 258° |
| 2026-05-07 21:01 | 14.48931 | 120.46171 | 26835 ft | 385 kts | 258° |
| 2026-05-07 21:01 | 14.48324 | 120.43461 | 27337 ft | 389 kts | 258° |
| 2026-05-07 21:01 | 14.47719 | 120.40756 | 27824 ft | 392 kts | 258° |
| 2026-05-07 21:01 | 14.47110 | 120.38034 | 28292 ft | 395 kts | 258° |
| 2026-05-07 21:02 | 14.46515 | 120.35245 | 28755 ft | 398 kts | 260° |
| 2026-05-07 21:02 | 14.46067 | 120.32426 | 29207 ft | 400 kts | 263° |
| 2026-05-07 21:02 | 14.45786 | 120.29562 | 29652 ft | 403 kts | 266° |
| 2026-05-07 21:02 | 14.45582 | 120.26706 | 30087 ft | 405 kts | 266° |
| 2026-05-07 21:03 | 14.45384 | 120.23792 | 30510 ft | 408 kts | 266° |
| 2026-05-07 21:03 | 14.45186 | 120.20893 | 30913 ft | 411 kts | 266° |
| 2026-05-07 21:03 | 14.44980 | 120.17920 | 31320 ft | 414 kts | 266° |
| 2026-05-07 21:03 | 14.44774 | 120.14978 | 31713 ft | 416 kts | 266° |
| 2026-05-07 21:04 | 14.44562 | 120.11980 | 32110 ft | 419 kts | 266° |
| 2026-05-07 21:04 | 14.44350 | 120.08997 | 32485 ft | 421 kts | 266° |
| 2026-05-07 21:04 | 14.44134 | 120.05984 | 32850 ft | 424 kts | 266° |
| 2026-05-07 21:04 | 14.43918 | 120.02976 | 33203 ft | 426 kts | 266° |
| 2026-05-07 21:05 | 14.43699 | 119.99937 | 33560 ft | 428 kts | 266° |
| 2026-05-07 21:05 | 14.43478 | 119.96871 | 33917 ft | 430 kts | 266° |
| 2026-05-07 21:05 | 14.43257 | 119.93802 | 34249 ft | 433 kts | 266° |
| 2026-05-07 21:05 | 14.43037 | 119.90743 | 34569 ft | 435 kts | 266° |
| 2026-05-07 21:06 | 14.42814 | 119.87635 | 34898 ft | 437 kts | 266° |
| 2026-05-07 21:06 | 14.42585 | 119.84479 | 35225 ft | 439 kts | 266° |
| 2026-05-07 21:06 | 14.42357 | 119.81327 | 35547 ft | 441 kts | 266° |
| 2026-05-07 21:06 | 14.42131 | 119.78208 | 35851 ft | 443 kts | 266° |
| 2026-05-07 21:07 | 14.41902 | 119.75037 | 36144 ft | 444 kts | 266° |
| 2026-05-07 21:07 | 14.41671 | 119.71847 | 36426 ft | 446 kts | 266° |
| 2026-05-07 21:07 | 14.41443 | 119.68690 | 36758 ft | 446 kts | 265° |
| 2026-05-07 21:07 | 14.41203 | 119.65501 | 37091 ft | 447 kts | 265° |
| 2026-05-07 21:08 | 14.40960 | 119.62292 | 37349 ft | 448 kts | 265° |
| 2026-05-07 21:08 | 14.40721 | 119.59110 | 37574 ft | 451 kts | 265° |
| 2026-05-07 21:08 | 14.40480 | 119.55855 | 37797 ft | 453 kts | 265° |
| 2026-05-07 21:08 | 14.40243 | 119.52645 | 38016 ft | 455 kts | 265° |
| 2026-05-07 21:09 | 14.40003 | 119.49404 | 38285 ft | 455 kts | 265° |
| 2026-05-07 21:09 | 14.39760 | 119.46123 | 38556 ft | 456 kts | 265° |
| 2026-05-07 21:09 | 14.39519 | 119.42872 | 38789 ft | 457 kts | 265° |
| 2026-05-07 21:09 | 14.39277 | 119.39623 | 39003 ft | 459 kts | 265° |
| 2026-05-07 21:10 | 14.39033 | 119.36337 | 39216 ft | 460 kts | 265° |
| 2026-05-07 21:10 | 14.38787 | 119.33051 | 39426 ft | 461 kts | 265° |
| 2026-05-07 21:10 | 14.38543 | 119.29778 | 39631 ft | 463 kts | 265° |
| 2026-05-07 21:10 | 14.38294 | 119.26452 | 39833 ft | 464 kts | 265° |
| 2026-05-07 21:11 | 14.38048 | 119.23167 | 39983 ft | 465 kts | 265° |
| 2026-05-07 21:11 | 14.37298 | 119.13192 | 39995 ft | 467 kts | 265° |
| 2026-05-07 21:12 | 14.36796 | 119.06561 | 39996 ft | 467 kts | 265° |
| 2026-05-07 21:12 | 14.36290 | 118.99889 | 39996 ft | 467 kts | 265° |
| 2026-05-07 21:13 | 14.35787 | 118.93282 | 39996 ft | 467 kts | 265° |
| 2026-05-07 21:13 | 14.35282 | 118.86672 | 39996 ft | 467 kts | 265° |
| 2026-05-07 21:14 | 14.34773 | 118.80033 | 39996 ft | 467 kts | 265° |
| 2026-05-07 21:14 | 14.34263 | 118.73405 | 39996 ft | 467 kts | 265° |
| 2026-05-07 21:15 | 14.33747 | 118.66728 | 39996 ft | 467 kts | 265° |
| 2026-05-07 21:15 | 14.33233 | 118.60098 | 39996 ft | 467 kts | 265° |
| 2026-05-07 21:16 | 14.32717 | 118.53464 | 39996 ft | 467 kts | 265° |
| 2026-05-07 21:16 | 14.32204 | 118.46895 | 39997 ft | 467 kts | 265° |
| 2026-05-07 21:17 | 14.31686 | 118.40269 | 39997 ft | 467 kts | 265° |
| 2026-05-07 21:17 | 14.31168 | 118.33685 | 39997 ft | 467 kts | 265° |
| 2026-05-07 21:18 | 14.30643 | 118.27045 | 39998 ft | 470 kts | 265° |
| 2026-05-07 21:18 | 14.30107 | 118.20306 | 39998 ft | 480 kts | 265° |
| 2026-05-07 21:19 | 14.29560 | 118.13454 | 39999 ft | 490 kts | 265° |
| 2026-05-07 21:19 | 14.28998 | 118.06438 | 39997 ft | 493 kts | 265° |
| 2026-05-07 21:20 | 14.28441 | 117.99491 | 39996 ft | 494 kts | 265° |
| 2026-05-07 21:20 | 14.27876 | 117.92470 | 39996 ft | 494 kts | 265° |
| 2026-05-07 21:21 | 14.27309 | 117.85449 | 39996 ft | 494 kts | 265° |
| 2026-05-07 21:21 | 14.26744 | 117.78470 | 39996 ft | 494 kts | 265° |
| 2026-05-07 21:22 | 14.26178 | 117.71512 | 39996 ft | 494 kts | 265° |
| 2026-05-07 21:22 | 14.25606 | 117.64500 | 39996 ft | 494 kts | 265° |
| 2026-05-07 21:23 | 14.25037 | 117.57545 | 39996 ft | 494 kts | 265° |
| 2026-05-07 21:23 | 14.24464 | 117.50573 | 39997 ft | 494 kts | 265° |
| 2026-05-07 21:24 | 14.23884 | 117.43542 | 39997 ft | 494 kts | 265° |
| 2026-05-07 21:24 | 14.23306 | 117.36556 | 39997 ft | 494 kts | 265° |
| 2026-05-07 21:25 | 14.22723 | 117.29546 | 39996 ft | 494 kts | 265° |
| 2026-05-07 21:25 | 14.22143 | 117.22592 | 39996 ft | 494 kts | 265° |
| 2026-05-07 21:26 | 14.21560 | 117.15627 | 39996 ft | 494 kts | 265° |
| 2026-05-07 21:26 | 14.20977 | 117.08677 | 39996 ft | 494 kts | 265° |
| 2026-05-07 21:27 | 14.20394 | 117.01754 | 39996 ft | 494 kts | 265° |
| 2026-05-07 21:27 | 14.19807 | 116.94794 | 39996 ft | 494 kts | 265° |
| 2026-05-07 21:28 | 14.19222 | 116.87917 | 39996 ft | 494 kts | 265° |
| 2026-05-07 21:28 | 14.18626 | 116.80949 | 39996 ft | 494 kts | 265° |
| 2026-05-07 21:29 | 14.18033 | 116.74025 | 39996 ft | 494 kts | 265° |
| 2026-05-07 21:29 | 14.17442 | 116.67130 | 39996 ft | 494 kts | 265° |
| 2026-05-07 21:30 | 14.16841 | 116.60143 | 39997 ft | 494 kts | 265° |
| 2026-05-07 21:30 | 14.16240 | 116.53178 | 39997 ft | 494 kts | 265° |
| 2026-05-07 21:31 | 14.15646 | 116.46223 | 40000 ft | 494 kts | 265° |
| 2026-05-07 21:31 | 14.15044 | 116.39217 | 39998 ft | 494 kts | 264° |
| 2026-05-07 21:32 | 14.14424 | 116.32265 | 39997 ft | 494 kts | 264° |
| 2026-05-07 21:32 | 14.13807 | 116.25291 | 39996 ft | 494 kts | 264° |
| 2026-05-07 21:33 | 14.13196 | 116.18359 | 39996 ft | 494 kts | 264° |
| 2026-05-07 21:33 | 14.12577 | 116.11346 | 39996 ft | 494 kts | 264° |
| 2026-05-07 21:34 | 14.11965 | 116.04421 | 39996 ft | 494 kts | 264° |
| 2026-05-07 21:34 | 14.11346 | 115.97454 | 39996 ft | 494 kts | 264° |
| 2026-05-07 21:35 | 14.10728 | 115.90498 | 39996 ft | 494 kts | 264° |
| 2026-05-07 21:35 | 14.10116 | 115.83585 | 39996 ft | 494 kts | 264° |
| 2026-05-07 21:36 | 14.09499 | 115.76653 | 39996 ft | 494 kts | 264° |
| 2026-05-07 21:36 | 14.08877 | 115.69717 | 39996 ft | 494 kts | 264° |
| 2026-05-07 21:37 | 14.08252 | 115.62773 | 39997 ft | 494 kts | 264° |
| 2026-05-07 21:37 | 14.07624 | 115.55836 | 39997 ft | 494 kts | 264° |
| 2026-05-07 21:38 | 14.07001 | 115.48965 | 39997 ft | 494 kts | 264° |
| 2026-05-07 21:38 | 14.06370 | 115.42035 | 39997 ft | 494 kts | 264° |
| 2026-05-07 21:39 | 14.05739 | 115.35124 | 39997 ft | 494 kts | 264° |
| 2026-05-07 21:39 | 14.05103 | 115.28188 | 39996 ft | 494 kts | 264° |
| 2026-05-07 21:40 | 14.04468 | 115.21293 | 39996 ft | 494 kts | 264° |
| 2026-05-07 21:40 | 14.03831 | 115.14378 | 39996 ft | 494 kts | 264° |
| 2026-05-07 21:41 | 14.03190 | 115.07446 | 39996 ft | 494 kts | 264° |
| 2026-05-07 21:41 | 14.02554 | 115.00580 | 39996 ft | 494 kts | 264° |
| 2026-05-07 21:42 | 14.01908 | 114.93636 | 39996 ft | 494 kts | 264° |
| 2026-05-07 21:42 | 14.01259 | 114.86689 | 39996 ft | 494 kts | 264° |
| 2026-05-07 21:43 | 14.00614 | 114.79797 | 39996 ft | 494 kts | 264° |
| 2026-05-07 21:43 | 13.99963 | 114.72857 | 39996 ft | 494 kts | 264° |
| 2026-05-07 21:44 | 13.99314 | 114.65971 | 39997 ft | 494 kts | 264° |
| 2026-05-07 21:44 | 13.98659 | 114.59030 | 39997 ft | 494 kts | 264° |
| 2026-05-07 21:45 | 13.98005 | 114.52124 | 39997 ft | 494 kts | 264° |
| 2026-05-07 21:45 | 13.97434 | 114.45208 | 39996 ft | 494 kts | 267° |
| 2026-05-07 21:46 | 13.97364 | 114.38250 | 39997 ft | 494 kts | 270° |
| 2026-05-07 21:46 | 13.97432 | 114.31306 | 39996 ft | 494 kts | 270° |
| 2026-05-07 21:47 | 13.97492 | 114.24417 | 39996 ft | 494 kts | 270° |
| 2026-05-07 21:47 | 13.97543 | 114.17472 | 39996 ft | 494 kts | 270° |
| 2026-05-07 21:48 | 13.97588 | 114.10493 | 39996 ft | 494 kts | 270° |
| 2026-05-07 21:48 | 13.97631 | 114.03490 | 39996 ft | 494 kts | 270° |
| 2026-05-07 21:49 | 13.97671 | 113.96519 | 39996 ft | 494 kts | 270° |
| 2026-05-07 21:49 | 13.97710 | 113.89563 | 39996 ft | 494 kts | 270° |
| 2026-05-07 21:50 | 13.97746 | 113.82592 | 39996 ft | 494 kts | 270° |
| 2026-05-07 21:50 | 13.97780 | 113.75648 | 39996 ft | 494 kts | 270° |
| 2026-05-07 21:51 | 13.97812 | 113.68774 | 39997 ft | 494 kts | 270° |
| 2026-05-07 21:51 | 13.97842 | 113.61806 | 39997 ft | 494 kts | 270° |
| 2026-05-07 21:52 | 13.97870 | 113.54891 | 39997 ft | 494 kts | 270° |
| 2026-05-07 21:52 | 13.97896 | 113.47973 | 39997 ft | 494 kts | 270° |
| 2026-05-07 21:53 | 13.97920 | 113.41048 | 39997 ft | 494 kts | 270° |
| 2026-05-07 21:53 | 13.97941 | 113.34165 | 39997 ft | 494 kts | 270° |
| 2026-05-07 21:54 | 13.97960 | 113.27256 | 39996 ft | 494 kts | 270° |
| 2026-05-07 21:54 | 13.97977 | 113.20338 | 39996 ft | 494 kts | 270° |
| 2026-05-07 21:55 | 13.97992 | 113.13412 | 39996 ft | 494 kts | 270° |
| 2026-05-07 21:55 | 13.98004 | 113.06450 | 39996 ft | 494 kts | 270° |
| 2026-05-07 21:56 | 13.98020 | 112.99567 | 39996 ft | 494 kts | 270° |
| 2026-05-07 21:56 | 13.98036 | 112.92620 | 39996 ft | 494 kts | 270° |
| 2026-05-07 21:57 | 13.98047 | 112.85700 | 39996 ft | 494 kts | 270° |
| 2026-05-07 21:57 | 13.98056 | 112.78824 | 39996 ft | 494 kts | 270° |
| 2026-05-07 21:58 | 13.98062 | 112.71871 | 39996 ft | 494 kts | 270° |
| 2026-05-07 21:58 | 13.98067 | 112.64938 | 39997 ft | 494 kts | 270° |
| 2026-05-07 21:59 | 13.98069 | 112.57999 | 39997 ft | 494 kts | 270° |
| 2026-05-07 21:59 | 13.98069 | 112.51123 | 39997 ft | 494 kts | 270° |
| 2026-05-07 22:00 | 13.98067 | 112.44144 | 39997 ft | 494 kts | 270° |
| 2026-05-07 22:00 | 13.98063 | 112.37264 | 39997 ft | 494 kts | 270° |
| 2026-05-07 22:01 | 13.98057 | 112.30301 | 39996 ft | 494 kts | 270° |
| 2026-05-07 22:01 | 13.98048 | 112.23354 | 39996 ft | 494 kts | 270° |
| 2026-05-07 22:02 | 13.98038 | 112.16391 | 39996 ft | 494 kts | 270° |
| 2026-05-07 22:02 | 13.98026 | 112.09455 | 39996 ft | 494 kts | 270° |
| 2026-05-07 22:03 | 13.98012 | 112.02488 | 39996 ft | 494 kts | 270° |
| 2026-05-07 22:03 | 13.97996 | 111.95525 | 39996 ft | 494 kts | 270° |
| 2026-05-07 22:04 | 13.97978 | 111.88556 | 39996 ft | 494 kts | 270° |
| 2026-05-07 22:04 | 13.97957 | 111.81541 | 39996 ft | 494 kts | 270° |
| 2026-05-07 22:05 | 13.97935 | 111.74545 | 39996 ft | 494 kts | 270° |
| 2026-05-07 22:05 | 13.97910 | 111.67581 | 39996 ft | 494 kts | 270° |
| 2026-05-07 22:06 | 13.97882 | 111.60632 | 39997 ft | 494 kts | 270° |
| 2026-05-07 22:06 | 13.97853 | 111.53754 | 39997 ft | 494 kts | 270° |
| 2026-05-07 22:07 | 13.97824 | 111.46814 | 39997 ft | 494 kts | 270° |
| 2026-05-07 22:07 | 13.97794 | 111.39839 | 39997 ft | 494 kts | 270° |
| 2026-05-07 22:08 | 13.97760 | 111.32933 | 39997 ft | 494 kts | 269° |
| 2026-05-07 22:08 | 13.97721 | 111.25951 | 39996 ft | 494 kts | 269° |
| 2026-05-07 22:09 | 13.97681 | 111.19030 | 39996 ft | 494 kts | 269° |
| 2026-05-07 22:09 | 13.97638 | 111.12086 | 39996 ft | 494 kts | 269° |
| 2026-05-07 22:10 | 13.97594 | 111.05176 | 39996 ft | 494 kts | 269° |
| 2026-05-07 22:10 | 13.97548 | 110.98266 | 39996 ft | 494 kts | 269° |
| 2026-05-07 22:11 | 13.97500 | 110.91354 | 39996 ft | 494 kts | 269° |
| 2026-05-07 22:11 | 13.97450 | 110.84453 | 39996 ft | 494 kts | 269° |
| 2026-05-07 22:12 | 13.97398 | 110.77502 | 39996 ft | 494 kts | 269° |
| 2026-05-07 22:12 | 13.97344 | 110.70567 | 39996 ft | 494 kts | 269° |
| 2026-05-07 22:13 | 13.97288 | 110.63601 | 39997 ft | 494 kts | 269° |
| 2026-05-07 22:13 | 13.97230 | 110.56713 | 39997 ft | 494 kts | 269° |
| 2026-05-07 22:14 | 13.97169 | 110.49750 | 39997 ft | 494 kts | 269° |
| 2026-05-07 22:14 | 13.97108 | 110.42853 | 39997 ft | 494 kts | 269° |
| 2026-05-07 22:15 | 13.97044 | 110.36002 | 39997 ft | 494 kts | 269° |
| 2026-05-07 22:15 | 13.96978 | 110.29102 | 39996 ft | 494 kts | 269° |
| 2026-05-07 22:16 | 13.96909 | 110.22188 | 39996 ft | 494 kts | 269° |
| 2026-05-07 22:16 | 13.96837 | 110.15307 | 39996 ft | 494 kts | 269° |
| 2026-05-07 22:17 | 13.96764 | 110.08421 | 39996 ft | 494 kts | 269° |
| 2026-05-07 22:17 | 13.96689 | 110.01584 | 39996 ft | 494 kts | 269° |
| 2026-05-07 22:18 | 13.96604 | 109.91345 | 39996 ft | 494 kts | 269° |
| 2026-05-07 22:19 | 13.96552 | 109.84498 | 39996 ft | 494 kts | 269° |
| 2026-05-07 22:19 | 13.96495 | 109.77726 | 39996 ft | 494 kts | 269° |
| 2026-05-07 22:20 | 13.96435 | 109.70887 | 39996 ft | 494 kts | 269° |
| 2026-05-07 22:20 | 13.96372 | 109.64078 | 39997 ft | 494 kts | 269° |
| 2026-05-07 22:21 | 13.96307 | 109.57310 | 39997 ft | 494 kts | 269° |
| 2026-05-07 22:21 | 13.96241 | 109.50504 | 39997 ft | 494 kts | 269° |
| 2026-05-07 22:22 | 13.96175 | 109.43732 | 39997 ft | 494 kts | 269° |
| 2026-05-07 22:22 | 13.96106 | 109.36950 | 39997 ft | 494 kts | 269° |
| 2026-05-07 22:23 | 13.96033 | 109.30232 | 39996 ft | 494 kts | 269° |
| 2026-05-07 22:23 | 13.95956 | 109.23446 | 39996 ft | 494 kts | 269° |
| 2026-05-07 22:24 | 13.95878 | 109.16660 | 39996 ft | 494 kts | 269° |
| 2026-05-07 22:24 | 13.95798 | 109.09942 | 39996 ft | 494 kts | 269° |
| 2026-05-07 22:25 | 13.95798 | 109.03106 | 39996 ft | 494 kts | 272° |
| 2026-05-07 22:25 | 13.96116 | 108.96277 | 39996 ft | 494 kts | 273° |
| 2026-05-07 22:26 | 13.96463 | 108.89510 | 39996 ft | 494 kts | 273° |
| 2026-05-07 22:26 | 13.96804 | 108.82714 | 39996 ft | 494 kts | 273° |
| 2026-05-07 22:27 | 13.97138 | 108.75938 | 39996 ft | 494 kts | 273° |
| 2026-05-07 22:27 | 13.97470 | 108.69115 | 39996 ft | 494 kts | 273° |
| 2026-05-07 22:28 | 13.97798 | 108.62350 | 39997 ft | 494 kts | 273° |
| 2026-05-07 22:28 | 13.98123 | 108.55566 | 39997 ft | 494 kts | 273° |
| 2026-05-07 22:29 | 13.98447 | 108.48779 | 39997 ft | 494 kts | 273° |
| 2026-05-07 22:29 | 13.98770 | 108.41970 | 39997 ft | 494 kts | 273° |
| 2026-05-07 22:30 | 13.99089 | 108.35170 | 39997 ft | 494 kts | 273° |
| 2026-05-07 22:30 | 13.99407 | 108.28371 | 39996 ft | 494 kts | 272° |
| 2026-05-07 22:31 | 13.99720 | 108.21598 | 39996 ft | 494 kts | 272° |
| 2026-05-07 22:31 | 14.00032 | 108.14842 | 39996 ft | 494 kts | 272° |
| 2026-05-07 22:32 | 14.00351 | 108.08044 | 39996 ft | 494 kts | 272° |
| 2026-05-07 22:32 | 14.00551 | 108.01273 | 39996 ft | 494 kts | 269° |
| 2026-05-07 22:33 | 14.00342 | 107.94460 | 39996 ft | 494 kts | 268° |
| 2026-05-07 22:33 | 14.00072 | 107.87638 | 39996 ft | 494 kts | 268° |
| 2026-05-07 22:34 | 13.99816 | 107.80787 | 39996 ft | 494 kts | 268° |
| 2026-05-07 22:34 | 13.99562 | 107.73898 | 39996 ft | 494 kts | 268° |
| 2026-05-07 22:35 | 13.99300 | 107.66879 | 39996 ft | 494 kts | 268° |
| 2026-05-07 22:35 | 13.99035 | 107.59869 | 39997 ft | 494 kts | 268° |
| 2026-05-07 22:36 | 13.98770 | 107.52917 | 39997 ft | 494 kts | 268° |
| 2026-05-07 22:36 | 13.98502 | 107.45943 | 39997 ft | 494 kts | 267° |
| 2026-05-07 22:37 | 13.97934 | 107.39113 | 39996 ft | 494 kts | 262° |
| 2026-05-07 22:37 | 13.96907 | 107.32346 | 39997 ft | 494 kts | 261° |
| 2026-05-07 22:38 | 13.95728 | 107.25620 | 39996 ft | 494 kts | 257° |
| 2026-05-07 22:38 | 13.93791 | 107.19113 | 39996 ft | 494 kts | 249° |
| 2026-05-07 22:39 | 13.90966 | 107.12987 | 39996 ft | 494 kts | 240° |
| 2026-05-07 22:39 | 13.87246 | 107.07271 | 39996 ft | 494 kts | 232° |
| 2026-05-07 22:40 | 13.83126 | 107.01846 | 39996 ft | 494 kts | 234° |
| 2026-05-07 22:40 | 13.79726 | 106.96052 | 39996 ft | 494 kts | 243° |
| 2026-05-07 22:41 | 13.77167 | 106.89745 | 39996 ft | 494 kts | 251° |
| 2026-05-07 22:41 | 13.75540 | 106.83153 | 39996 ft | 494 kts | 259° |
| 2026-05-07 22:42 | 13.74473 | 106.76463 | 39997 ft | 494 kts | 261° |
| 2026-05-07 22:42 | 13.73436 | 106.69708 | 39996 ft | 494 kts | 261° |
| 2026-05-07 22:43 | 13.72385 | 106.63006 | 39996 ft | 494 kts | 261° |
| 2026-05-07 22:43 | 13.71315 | 106.56269 | 39996 ft | 494 kts | 261° |
| 2026-05-07 22:44 | 13.70242 | 106.49550 | 39996 ft | 494 kts | 261° |
| 2026-05-07 22:44 | 13.69162 | 106.42803 | 39996 ft | 494 kts | 261° |
| 2026-05-07 22:45 | 13.68076 | 106.36034 | 39996 ft | 494 kts | 261° |
| 2026-05-07 22:45 | 13.66987 | 106.29251 | 39996 ft | 494 kts | 261° |
| 2026-05-07 22:46 | 13.65886 | 106.22417 | 39996 ft | 494 kts | 261° |
| 2026-05-07 22:46 | 13.64850 | 106.15617 | 39996 ft | 494 kts | 263° |
| 2026-05-07 22:47 | 13.64329 | 106.08707 | 39996 ft | 494 kts | 268° |
| 2026-05-07 22:47 | 13.64415 | 106.01774 | 39997 ft | 494 kts | 272° |
| 2026-05-07 22:48 | 13.64655 | 105.94857 | 39996 ft | 494 kts | 272° |
| 2026-05-07 22:48 | 13.64892 | 105.87902 | 39996 ft | 494 kts | 272° |
| 2026-05-07 22:49 | 13.65115 | 105.80988 | 39996 ft | 494 kts | 272° |
| 2026-05-07 22:49 | 13.65334 | 105.74034 | 39996 ft | 494 kts | 272° |
| 2026-05-07 22:50 | 13.65550 | 105.67120 | 39996 ft | 494 kts | 272° |
| 2026-05-07 22:50 | 13.65763 | 105.60191 | 39996 ft | 494 kts | 272° |
| 2026-05-07 22:51 | 13.65973 | 105.53297 | 39996 ft | 494 kts | 272° |
| 2026-05-07 22:51 | 13.66182 | 105.46387 | 39996 ft | 494 kts | 272° |
| 2026-05-07 22:52 | 13.66389 | 105.39481 | 39996 ft | 494 kts | 272° |
| 2026-05-07 22:52 | 13.66592 | 105.32622 | 39996 ft | 494 kts | 271° |
| 2026-05-07 22:53 | 13.66793 | 105.25761 | 39996 ft | 494 kts | 271° |
| 2026-05-07 22:53 | 13.66992 | 105.18863 | 39996 ft | 494 kts | 271° |
| 2026-05-07 22:54 | 13.67189 | 105.11955 | 39996 ft | 494 kts | 271° |
| 2026-05-07 22:54 | 13.67388 | 105.05033 | 39996 ft | 494 kts | 271° |
| 2026-05-07 22:55 | 13.67585 | 104.98229 | 39996 ft | 494 kts | 271° |
| 2026-05-07 22:55 | 13.67779 | 104.91343 | 39996 ft | 494 kts | 271° |
| 2026-05-07 22:56 | 13.67970 | 104.84478 | 39996 ft | 494 kts | 271° |
| 2026-05-07 22:56 | 13.68158 | 104.77652 | 39996 ft | 494 kts | 271° |
| 2026-05-07 22:57 | 13.68343 | 104.70803 | 39996 ft | 494 kts | 271° |
| 2026-05-07 22:57 | 13.68528 | 104.63959 | 39996 ft | 494 kts | 271° |
| 2026-05-07 22:58 | 13.68708 | 104.57159 | 39996 ft | 494 kts | 271° |
| 2026-05-07 22:58 | 13.68890 | 104.50272 | 39996 ft | 494 kts | 271° |
| 2026-05-07 22:59 | 13.69069 | 104.43370 | 39996 ft | 494 kts | 271° |
| 2026-05-07 22:59 | 13.69248 | 104.36410 | 39996 ft | 494 kts | 271° |
| 2026-05-07 23:00 | 13.69424 | 104.29513 | 39996 ft | 494 kts | 271° |
| 2026-05-07 23:00 | 13.69598 | 104.22639 | 39996 ft | 494 kts | 271° |
| 2026-05-07 23:01 | 13.69772 | 104.15678 | 39996 ft | 494 kts | 271° |
| 2026-05-07 23:01 | 13.69942 | 104.08753 | 39996 ft | 494 kts | 271° |
| 2026-05-07 23:02 | 13.70112 | 104.01796 | 39996 ft | 494 kts | 271° |
| 2026-05-07 23:02 | 13.70279 | 103.94794 | 39996 ft | 494 kts | 271° |
| 2026-05-07 23:03 | 13.70443 | 103.87867 | 39996 ft | 494 kts | 271° |
| 2026-05-07 23:03 | 13.70604 | 103.80890 | 39996 ft | 494 kts | 271° |
| 2026-05-07 23:04 | 13.70767 | 103.73953 | 39996 ft | 494 kts | 271° |
| 2026-05-07 23:04 | 13.70930 | 103.67024 | 39996 ft | 494 kts | 271° |
| 2026-05-07 23:05 | 13.71091 | 103.60043 | 39996 ft | 494 kts | 271° |
| 2026-05-07 23:05 | 13.71246 | 103.53114 | 39996 ft | 494 kts | 271° |
| 2026-05-07 23:06 | 13.71401 | 103.46114 | 39996 ft | 494 kts | 271° |
| 2026-05-07 23:06 | 13.71553 | 103.39169 | 39996 ft | 494 kts | 271° |
| 2026-05-07 23:07 | 13.71702 | 103.32226 | 39996 ft | 494 kts | 271° |
| 2026-05-07 23:07 | 13.71849 | 103.25313 | 39996 ft | 494 kts | 271° |
| 2026-05-07 23:08 | 13.71995 | 103.18376 | 39996 ft | 494 kts | 271° |
| 2026-05-07 23:08 | 13.72137 | 103.11485 | 39996 ft | 494 kts | 271° |
| 2026-05-07 23:09 | 13.72279 | 103.04544 | 39996 ft | 494 kts | 271° |
| 2026-05-07 23:09 | 13.72417 | 102.97616 | 39749 ft | 493 kts | 271° |
| 2026-05-07 23:09 | 13.72486 | 102.94117 | 39391 ft | 492 kts | 271° |
| 2026-05-07 23:10 | 13.72555 | 102.90597 | 38919 ft | 491 kts | 271° |
| 2026-05-07 23:10 | 13.72622 | 102.87141 | 38407 ft | 490 kts | 271° |
| 2026-05-07 23:10 | 13.72689 | 102.83665 | 37867 ft | 490 kts | 271° |
| 2026-05-07 23:10 | 13.72755 | 102.80250 | 37331 ft | 489 kts | 271° |
| 2026-05-07 23:11 | 13.72822 | 102.76769 | 36972 ft | 489 kts | 271° |
| 2026-05-07 23:11 | 13.72887 | 102.73330 | 36732 ft | 492 kts | 271° |
| 2026-05-07 23:11 | 13.72953 | 102.69826 | 36240 ft | 491 kts | 271° |
| 2026-05-07 23:11 | 13.73018 | 102.66312 | 35824 ft | 490 kts | 271° |
| 2026-05-07 23:12 | 13.73083 | 102.62870 | 35487 ft | 491 kts | 271° |
| 2026-05-07 23:12 | 13.73148 | 102.59371 | 35189 ft | 492 kts | 271° |
| 2026-05-07 23:12 | 13.73213 | 102.55859 | 34843 ft | 494 kts | 271° |
| 2026-05-07 23:12 | 13.73278 | 102.52336 | 34372 ft | 493 kts | 271° |
| 2026-05-07 23:13 | 13.73341 | 102.48811 | 33946 ft | 495 kts | 271° |
| 2026-05-07 23:13 | 13.73403 | 102.45316 | 33436 ft | 495 kts | 271° |
| 2026-05-07 23:13 | 13.73464 | 102.41778 | 33004 ft | 496 kts | 271° |
| 2026-05-07 23:13 | 13.73524 | 102.38231 | 32541 ft | 497 kts | 271° |
| 2026-05-07 23:14 | 13.73584 | 102.34701 | 32066 ft | 498 kts | 271° |
| 2026-05-07 23:14 | 13.73644 | 102.31126 | 31646 ft | 499 kts | 270° |
| 2026-05-07 23:14 | 13.73556 | 102.27613 | 31159 ft | 500 kts | 266° |
| 2026-05-07 23:14 | 13.73191 | 102.24165 | 30722 ft | 501 kts | 261° |
| 2026-05-07 23:15 | 13.72518 | 102.20660 | 30311 ft | 502 kts | 256° |
| 2026-05-07 23:15 | 13.71568 | 102.17289 | 29920 ft | 503 kts | 251° |
| 2026-05-07 23:15 | 13.70408 | 102.13995 | 29536 ft | 503 kts | 249° |
| 2026-05-07 23:15 | 13.69222 | 102.10809 | 29161 ft | 501 kts | 249° |
| 2026-05-07 23:16 | 13.67979 | 102.07513 | 28776 ft | 498 kts | 249° |
| 2026-05-07 23:16 | 13.66738 | 102.04216 | 28418 ft | 495 kts | 249° |
| 2026-05-07 23:16 | 13.65509 | 102.00935 | 28080 ft | 493 kts | 249° |
| 2026-05-07 23:16 | 13.64290 | 101.97666 | 27742 ft | 490 kts | 249° |
| 2026-05-07 23:17 | 13.63080 | 101.94411 | 27374 ft | 488 kts | 249° |
| 2026-05-07 23:17 | 13.61879 | 101.91174 | 26990 ft | 485 kts | 249° |
| 2026-05-07 23:17 | 13.60676 | 101.87932 | 26598 ft | 482 kts | 249° |
| 2026-05-07 23:17 | 13.59492 | 101.84741 | 26205 ft | 479 kts | 249° |
| 2026-05-07 23:18 | 13.58319 | 101.81579 | 25813 ft | 476 kts | 249° |
| 2026-05-07 23:18 | 13.57135 | 101.78388 | 25412 ft | 474 kts | 249° |
| 2026-05-07 23:18 | 13.55977 | 101.75268 | 25018 ft | 471 kts | 249° |
| 2026-05-07 23:18 | 13.54804 | 101.72109 | 24618 ft | 468 kts | 249° |
| 2026-05-07 23:19 | 13.53658 | 101.69026 | 24224 ft | 465 kts | 249° |
| 2026-05-07 23:19 | 13.52515 | 101.65950 | 23829 ft | 462 kts | 249° |
| 2026-05-07 23:19 | 13.51379 | 101.62894 | 23435 ft | 460 kts | 249° |
| 2026-05-07 23:19 | 13.50236 | 101.59824 | 23037 ft | 457 kts | 249° |
| 2026-05-07 23:20 | 13.49113 | 101.56805 | 22644 ft | 454 kts | 249° |
| 2026-05-07 23:20 | 13.47990 | 101.53787 | 22249 ft | 452 kts | 249° |
| 2026-05-07 23:20 | 13.46873 | 101.50787 | 21855 ft | 449 kts | 249° |
| 2026-05-07 23:20 | 13.45761 | 101.47801 | 21460 ft | 447 kts | 249° |
| 2026-05-07 23:21 | 13.44653 | 101.44829 | 21066 ft | 444 kts | 249° |
| 2026-05-07 23:21 | 13.43554 | 101.41884 | 20673 ft | 441 kts | 249° |
| 2026-05-07 23:21 | 13.42462 | 101.38956 | 20281 ft | 439 kts | 249° |
| 2026-05-07 23:21 | 13.41382 | 101.36062 | 19893 ft | 436 kts | 249° |
| 2026-05-07 23:22 | 13.40302 | 101.33170 | 19502 ft | 434 kts | 249° |
| 2026-05-07 23:22 | 13.39216 | 101.30263 | 19108 ft | 431 kts | 249° |
| 2026-05-07 23:22 | 13.38146 | 101.27403 | 18719 ft | 429 kts | 249° |
| 2026-05-07 23:22 | 13.37096 | 101.24595 | 18337 ft | 427 kts | 249° |
| 2026-05-07 23:23 | 13.36095 | 101.21709 | 17934 ft | 424 kts | 255° |
| 2026-05-07 23:23 | 13.35769 | 101.18741 | 17436 ft | 420 kts | 272° |
| 2026-05-07 23:23 | 13.36316 | 101.15850 | 16826 ft | 417 kts | 290° |
| 2026-05-07 23:23 | 13.37713 | 101.13242 | 16210 ft | 413 kts | 308° |
| 2026-05-07 23:24 | 13.39746 | 101.11240 | 15625 ft | 410 kts | 324° |
| 2026-05-07 23:24 | 13.42270 | 101.09935 | 15041 ft | 406 kts | 341° |
| 2026-05-07 23:24 | 13.44971 | 101.09122 | 14488 ft | 402 kts | 345° |
| 2026-05-07 23:24 | 13.47616 | 101.08380 | 13912 ft | 400 kts | 345° |
| 2026-05-07 23:25 | 13.50301 | 101.07626 | 13334 ft | 396 kts | 345° |
| 2026-05-07 23:25 | 13.52942 | 101.06872 | 12770 ft | 393 kts | 344° |
| 2026-05-07 23:25 | 13.55528 | 101.06124 | 12217 ft | 390 kts | 344° |
| 2026-05-07 23:25 | 13.58135 | 101.05365 | 11654 ft | 387 kts | 344° |
| 2026-05-07 23:26 | 13.60715 | 101.04609 | 11167 ft | 383 kts | 344° |
| 2026-05-07 23:26 | 13.63241 | 101.03867 | 10761 ft | 382 kts | 344° |
| 2026-05-07 23:26 | 13.65810 | 101.03108 | 10373 ft | 380 kts | 344° |
| 2026-05-07 23:26 | 13.68308 | 101.02368 | 9969 ft | 374 kts | 344° |
| 2026-05-07 23:27 | 13.73024 | 101.00974 | 9299 ft | 335 kts | 344° |
| 2026-05-07 23:27 | 13.75208 | 101.00326 | 9007 ft | 324 kts | 344° |
| 2026-05-07 23:27 | 13.77356 | 100.99691 | 8661 ft | 316 kts | 344° |
| 2026-05-07 23:28 | 13.79431 | 100.99077 | 8327 ft | 309 kts | 344° |
| 2026-05-07 23:28 | 13.81484 | 100.98470 | 8014 ft | 302 kts | 344° |
| 2026-05-07 23:28 | 13.83483 | 100.97879 | 7762 ft | 297 kts | 344° |
| 2026-05-07 23:28 | 13.85445 | 100.97303 | 7533 ft | 293 kts | 344° |
| 2026-05-07 23:29 | 13.87375 | 100.96736 | 7329 ft | 288 kts | 344° |
| 2026-05-07 23:29 | 13.89275 | 100.96176 | 7125 ft | 283 kts | 344° |
| 2026-05-07 23:29 | 13.91162 | 100.95619 | 6860 ft | 281 kts | 344° |
| 2026-05-07 23:29 | 13.93041 | 100.95062 | 6512 ft | 283 kts | 344° |
| 2026-05-07 23:30 | 13.94946 | 100.94498 | 6203 ft | 282 kts | 344° |
| 2026-05-07 23:30 | 13.96804 | 100.93949 | 5921 ft | 281 kts | 344° |
| 2026-05-07 23:30 | 13.98627 | 100.93203 | 5613 ft | 281 kts | 325° |
| 2026-05-07 23:30 | 13.99909 | 100.91745 | 5325 ft | 279 kts | 297° |
| 2026-05-07 23:31 | 14.00515 | 100.89861 | 5148 ft | 274 kts | 284° |
| 2026-05-07 23:31 | 14.00945 | 100.87982 | 5136 ft | 263 kts | 283° |
| 2026-05-07 23:31 | 14.01344 | 100.86202 | 5134 ft | 252 kts | 283° |
| 2026-05-07 23:31 | 14.01613 | 100.84472 | 5116 ft | 240 kts | 265° |
| 2026-05-07 23:32 | 14.01053 | 100.82924 | 5100 ft | 227 kts | 231° |
| 2026-05-07 23:32 | 13.99808 | 100.81973 | 4813 ft | 228 kts | 199° |
| 2026-05-07 23:32 | 13.98277 | 100.81535 | 4454 ft | 233 kts | 193° |
| 2026-05-07 23:32 | 13.96676 | 100.81161 | 4107 ft | 235 kts | 193° |
| 2026-05-07 23:33 | 13.95095 | 100.80783 | 3786 ft | 234 kts | 193° |
| 2026-05-07 23:33 | 13.93522 | 100.80391 | 3506 ft | 231 kts | 194° |
| 2026-05-07 23:33 | 13.91995 | 100.79998 | 3398 ft | 221 kts | 194° |
| 2026-05-07 23:33 | 13.90554 | 100.79623 | 3303 ft | 211 kts | 194° |
| 2026-05-07 23:34 | 13.89148 | 100.79254 | 3202 ft | 203 kts | 194° |
| 2026-05-07 23:34 | 13.87818 | 100.78905 | 3108 ft | 195 kts | 194° |
| 2026-05-07 23:34 | 13.86514 | 100.78565 | 2956 ft | 193 kts | 194° |
| 2026-05-07 23:34 | 13.85207 | 100.78223 | 2760 ft | 193 kts | 194° |
| 2026-05-07 23:35 | 13.83936 | 100.77889 | 2711 ft | 185 kts | 194° |
| 2026-05-07 23:35 | 13.82729 | 100.77572 | 2687 ft | 176 kts | 194° |
| 2026-05-07 23:35 | 13.81538 | 100.77381 | 2515 ft | 175 kts | 178° |
| 2026-05-07 23:35 | 13.80301 | 100.77449 | 2142 ft | 180 kts | 180° |
| 2026-05-07 23:36 | 13.79143 | 100.77268 | 2181 ft | 161 kts | 200° |
| 2026-05-07 23:36 | 13.78115 | 100.76803 | 1980 ft | 162 kts | 205° |
| 2026-05-07 23:36 | 13.77089 | 100.76318 | 1677 ft | 163 kts | 204° |
| 2026-05-07 23:36 | 13.76043 | 100.75881 | 1332 ft | 162 kts | 199° |
| 2026-05-07 23:37 | 13.75005 | 100.75552 | 1015 ft | 158 kts | 196° |
| 2026-05-07 23:37 | 13.73988 | 100.75263 | 802 ft | 150 kts | 193° |
| 2026-05-07 23:37 | 13.73018 | 100.75015 | 596 ft | 142 kts | 194° |
| 2026-05-07 23:37 | 13.72089 | 100.74770 | 398 ft | 136 kts | 194° |
| 2026-05-07 23:38 | 13.71193 | 100.74538 | 204 ft | 133 kts | 194° |
| 2026-05-07 23:38 | 13.70295 | 100.74308 | 67 ft | 134 kts | 194° |
| 2026-05-07 23:38 | 13.69436 | 100.74080 | 19 ft | 116 kts | 195° |
| 2026-05-07 23:38 | 13.68830 | 100.73914 | 18 ft | 62 kts | 194° |
| 2026-05-07 23:39 | 13.68492 | 100.73826 | 18 ft | 39 kts | 191° |
| 2026-05-07 23:39 | 13.68266 | 100.73864 | 18 ft | 26 kts | 155° |
| 2026-05-07 23:39 | 13.68241 | 100.73933 | 18 ft | 9 kts | 39° |
| 2026-05-07 23:39 | 13.68303 | 100.73958 | 18 ft | 9 kts | 12° |
| 2026-05-07 23:40 | 13.68383 | 100.73976 | 18 ft | 13 kts | 14° |
| 2026-05-07 23:40 | 13.68486 | 100.74005 | 18 ft | 16 kts | 15° |
| 2026-05-07 23:40 | 13.68609 | 100.74037 | 18 ft | 19 kts | 14° |
| 2026-05-07 23:40 | 13.68750 | 100.74073 | 18 ft | 22 kts | 14° |
| 2026-05-07 23:41 | 13.68832 | 100.74116 | 18 ft | 4 kts | 77° |
| 2026-05-07 23:41 | 13.68828 | 100.74171 | 18 ft | 11 kts | 101° |
| 2026-05-07 23:41 | 13.68802 | 100.74283 | 18 ft | 20 kts | 103° |
| 2026-05-07 23:41 | 13.68763 | 100.74443 | 18 ft | 24 kts | 105° |
| 2026-05-07 23:42 | 13.68718 | 100.74624 | 18 ft | 19 kts | 104° |
| 2026-05-07 23:42 | 13.68787 | 100.74728 | 18 ft | 21 kts | 15° |
| 2026-05-07 23:42 | 13.68858 | 100.74744 | 18 ft | 1 kts | 0° |
| 2026-05-07 23:42 | 13.68874 | 100.74721 | 18 ft | 6 kts | 290° |
| 2026-05-07 23:43 | 13.68887 | 100.74674 | 18 ft | 3 kts | 283° |
| 2026-05-07 23:43 | 13.68888 | 100.74670 | 18 ft | 0 kts | 283° |